Time;durP1;ratioP1;P1;durP2;ratioP2;P2;SDS_P1;SDS_P2;PMS_P1;PMS_P2;Temp;Humidity;BMP_temperature;BMP_pressure;BME280_temperature;BME280_humidity;BME280_pressure;Samples;Min_cycle;Max_cycle;Signal;HPM_P1;HPM_P2
2021/04/10 00:01:18;;;;;;;11.07;7.33;;;9.90;99.30;;;;;;5085127;28;20181;-79
2021/04/10 00:03:44;;;;;;;8.97;7.40;;;9.80;99.40;;;;;;5080018;28;20626;-81
2021/04/10 00:06:10;;;;;;;9.30;7.40;;;9.80;99.50;;;;;;5077889;28;20957;-79
2021/04/10 00:08:36;;;;;;;7.20;6.40;;;9.70;99.50;;;;;;5078228;28;20504;-79
2021/04/10 00:11:01;;;;;;;8.70;6.93;;;9.60;99.70;;;;;;5078567;28;20440;-79
2021/04/10 00:13:27;;;;;;;7.80;7.00;;;9.60;99.70;;;;;;5079102;28;20448;-80
2021/04/10 00:15:52;;;;;;;7.80;7.00;;;9.50;99.80;;;;;;5061369;28;516427;-79
2021/04/10 00:18:18;;;;;;;11.37;6.83;;;9.40;99.90;;;;;;5077395;28;20179;-80
2021/04/10 00:20:43;;;;;;;9.70;6.40;;;9.50;99.90;;;;;;5078999;28;20245;-80
2021/04/10 00:23:09;;;;;;;7.10;6.40;;;9.50;99.90;;;;;;5078983;28;20193;-80
2021/04/10 00:25:34;;;;;;;11.13;6.80;;;9.40;99.90;;;;;;5079060;28;20470;-80
2021/04/10 00:28:00;;;;;;;9.20;7.40;;;9.40;99.90;;;;;;5094666;28;20179;-80
2021/04/10 00:30:25;;;;;;;7.60;6.80;;;9.30;99.90;;;;;;5078792;28;20206;-79
2021/04/10 00:32:51;;;;;;;9.43;8.00;;;9.30;99.90;;;;;;5078583;28;20292;-80
2021/04/10 00:35:17;;;;;;;10.47;8.33;;;9.20;99.90;;;;;;5077530;28;20175;-82
2021/04/10 00:37:42;;;;;;;9.90;7.77;;;9.20;99.90;;;;;;5078864;28;20220;-80
2021/04/10 00:40:09;;;;;;;9.90;8.77;;;9.10;99.90;;;;;;5078143;28;20241;-80
2021/04/10 00:42:35;;;;;;;11.10;8.07;;;9.10;99.90;;;;;;5078473;28;20239;-80
2021/04/10 00:45:02;;;;;;;9.80;6.60;;;9.10;99.90;;;;;;5077477;28;20504;-80
2021/04/10 00:47:27;;;;;;;10.70;8.50;;;9.00;99.90;;;;;;5078407;28;20423;-80
2021/04/10 00:49:53;;;;;;;8.90;7.10;;;9.00;99.90;;;;;;5079727;28;20419;-81
2021/04/10 00:52:19;;;;;;;7.83;6.67;;;8.90;99.90;;;;;;5078587;28;20194;-81
2021/04/10 00:54:48;;;;;;;9.57;8.70;;;8.90;99.90;;;;;;5078678;28;20217;-80
2021/04/10 00:57:13;;;;;;;11.57;7.50;;;8.90;99.90;;;;;;5078002;28;20176;-81
2021/04/10 00:59:39;;;;;;;7.77;7.07;;;8.80;99.90;;;;;;5077551;28;20911;-81
2021/04/10 01:02:07;;;;;;;11.23;7.87;;;8.80;99.90;;;;;;5078181;28;20186;-81
2021/04/10 01:04:33;;;;;;;10.07;7.90;;;8.80;99.90;;;;;;5077384;28;20179;-81
2021/04/10 01:06:58;;;;;;;10.40;8.60;;;8.70;99.90;;;;;;5078339;28;20415;-81
2021/04/10 01:09:24;;;;;;;9.37;7.93;;;8.60;99.90;;;;;;5078606;28;20258;-80
2021/04/10 01:12:11;;;;;;;8.87;7.97;;;8.50;99.90;;;;;;5079379;28;20195;-80
2021/04/10 01:15:01;;;;;;;7.50;6.70;;;8.30;99.90;;;;;;5077702;28;20221;-80
2021/04/10 01:17:34;;;;;;;10.33;7.67;;;8.10;99.90;;;;;;5079159;28;20409;-80
2021/04/10 01:20:24;;;;;;;8.90;7.60;;;8.00;99.90;;;;;;5082501;28;20426;-80
2021/04/10 01:23:11;;;;;;;9.47;7.00;;;7.80;99.90;;;;;;5093071;28;20424;-79
2021/04/10 01:26:00;;;;;;;11.03;8.00;;;7.70;99.90;;;;;;5089111;28;20440;-79
2021/04/10 01:28:51;;;;;;;7.97;7.20;;;7.70;99.90;;;;;;5104779;28;20430;-80
2021/04/10 01:31:21;;;;;;;8.30;7.33;;;7.50;99.90;;;;;;5112539;28;20412;-79
2021/04/10 01:33:58;;;;;;;8.80;7.30;;;7.50;99.90;;;;;;5113708;28;20525;-80
2021/04/10 01:36:29;;;;;;;8.73;7.80;;;7.50;99.90;;;;;;5112864;28;20471;-80
2021/04/10 01:38:56;;;;;;;8.10;7.33;;;7.40;99.90;;;;;;5099166;28;20428;-81
2021/04/10 01:41:23;;;;;;;7.80;7.00;;;7.40;99.90;;;;;;5097592;28;20526;-82
2021/04/10 01:43:50;;;;;;;7.73;7.03;;;7.40;99.90;;;;;;5098030;28;20446;-80
2021/04/10 01:46:17;;;;;;;8.30;6.77;;;7.30;99.90;;;;;;5096730;28;20419;-80
2021/04/10 01:48:45;;;;;;;7.73;6.80;;;7.30;99.90;;;;;;5097205;28;20441;-80
2021/04/10 01:51:11;;;;;;;10.40;7.10;;;7.20;99.90;;;;;;5099626;28;20421;-80
2021/04/10 01:53:39;;;;;;;7.10;6.37;;;7.20;99.90;;;;;;5101439;28;20447;-80
2021/04/10 01:56:05;;;;;;;9.00;5.50;;;7.10;99.90;;;;;;5097477;28;20480;-80
2021/04/10 01:58:32;;;;;;;6.67;6.07;;;7.10;99.90;;;;;;5096602;28;20904;-80
2021/04/10 02:00:59;;;;;;;6.60;6.00;;;7.10;99.90;;;;;;5097033;28;20414;-80
2021/04/10 02:03:26;;;;;;;10.80;7.73;;;7.10;99.90;;;;;;5097393;28;20488;-79
2021/04/10 02:05:53;;;;;;;7.47;5.83;;;7.10;99.90;;;;;;5097386;28;20742;-81
2021/04/10 02:08:19;;;;;;;6.17;5.60;;;7.00;99.90;;;;;;5097365;28;20789;-81
2021/04/10 02:10:46;;;;;;;7.53;6.73;;;7.00;99.90;;;;;;5097896;28;20411;-81
2021/04/10 02:13:13;;;;;;;8.70;5.77;;;7.00;99.90;;;;;;5096296;28;20538;-81
2021/04/10 02:15:38;;;;;;;6.53;5.90;;;7.00;99.90;;;;;;5096643;28;20520;-81
2021/04/10 02:18:04;;;;;;;7.23;6.50;;;7.00;99.90;;;;;;5097578;28;20399;-81
2021/04/10 02:20:30;;;;;;;8.33;6.60;;;7.00;99.90;;;;;;5096759;28;20192;-81
2021/04/10 02:22:56;;;;;;;7.83;6.10;;;7.00;99.90;;;;;;5097310;28;20177;-81
2021/04/10 02:25:26;;;;;;;10.93;5.67;;;7.00;99.90;;;;;;5101284;28;20522;-81
2021/04/10 02:27:54;;;;;;;7.83;5.70;;;7.00;99.90;;;;;;5103678;28;20391;-80
2021/04/10 02:30:20;;;;;;;6.77;6.07;;;7.10;99.90;;;;;;5102615;28;20407;-81
2021/04/10 02:33:02;;;;;;;10.63;6.30;;;7.10;99.90;;;;;;5102625;28;20923;-81
2021/04/10 02:35:38;;;;;;;11.70;6.30;;;7.10;99.90;;;;;;5103790;28;20410;-81
2021/04/10 02:38:06;;;;;;;12.10;5.80;;;7.20;99.90;;;;;;5104789;28;20395;-81
2021/04/10 02:40:35;;;;;;;6.27;5.67;;;7.20;99.90;;;;;;5105322;28;20846;-81
2021/04/10 02:43:03;;;;;;;7.00;5.40;;;7.30;99.90;;;;;;5111407;28;20419;-81
2021/04/10 02:45:29;;;;;;;9.07;7.00;;;7.30;99.90;;;;;;5111433;28;20426;-82
2021/04/10 02:48:01;;;;;;;7.63;6.20;;;7.30;99.90;;;;;;5111458;28;20416;-81
2021/04/10 02:50:29;;;;;;;6.50;5.80;;;7.30;99.90;;;;;;5111433;28;20197;-81
2021/04/10 02:53:03;;;;;;;5.70;5.07;;;7.30;99.90;;;;;;5097354;28;20463;-81
2021/04/10 02:55:35;;;;;;;7.00;5.03;;;7.30;99.90;;;;;;5096904;28;20404;-81
2021/04/10 02:58:06;;;;;;;8.90;5.03;;;7.30;99.90;;;;;;5095973;28;20419;-81
2021/04/10 03:00:32;;;;;;;5.40;4.50;;;7.30;99.90;;;;;;5096325;28;20438;-81
2021/04/10 03:02:58;;;;;;;6.23;5.30;;;7.20;99.90;;;;;;5096562;28;20459;-81
2021/04/10 03:05:24;;;;;;;6.50;5.90;;;7.30;99.90;;;;;;5096310;28;20400;-81
2021/04/10 03:07:52;;;;;;;6.37;5.80;;;7.30;99.90;;;;;;5098419;28;20924;-81
2021/04/10 03:10:18;;;;;;;6.37;4.93;;;7.30;99.90;;;;;;5100386;28;20418;-81
2021/04/10 03:12:45;;;;;;;8.90;6.10;;;7.30;99.90;;;;;;5099920;28;20423;-81
2021/04/10 03:15:15;;;;;;;8.03;5.53;;;7.30;99.90;;;;;;5099733;28;20462;-81
2021/04/10 03:17:42;;;;;;;7.80;5.90;;;7.30;99.90;;;;;;5100351;28;20396;-81
2021/04/10 03:20:15;;;;;;;6.63;5.07;;;7.30;99.90;;;;;;5100923;28;20410;-81
2021/04/10 03:22:44;;;;;;;7.50;6.13;;;7.20;99.90;;;;;;5100550;28;20523;-81
2021/04/10 03:25:12;;;;;;;6.67;5.77;;;7.20;99.90;;;;;;5099565;28;20422;-81
2021/04/10 03:27:39;;;;;;;8.67;5.67;;;7.30;99.90;;;;;;5097753;28;20419;-81
2021/04/10 03:30:06;;;;;;;6.83;6.10;;;7.30;99.90;;;;;;5067696;28;20428;-81
2021/04/10 03:32:32;;;;;;;7.97;6.67;;;7.20;99.90;;;;;;5079191;28;20435;-81
2021/04/10 03:34:59;;;;;;;5.77;5.17;;;7.20;99.90;;;;;;5081031;28;20525;-80
2021/04/10 03:37:25;;;;;;;6.60;5.67;;;7.30;99.90;;;;;;5084135;28;20416;-80
2021/04/10 03:39:51;;;;;;;7.83;5.73;;;7.20;99.90;;;;;;5082660;28;20397;-80
2021/04/10 03:42:21;;;;;;;7.17;6.33;;;7.20;99.90;;;;;;5083296;28;20459;-80
2021/04/10 03:44:46;;;;;;;6.60;5.90;;;7.20;99.90;;;;;;5083318;28;20175;-80
2021/04/10 03:47:12;;;;;;;7.70;6.07;;;7.20;99.90;;;;;;5081596;28;20420;-79
2021/04/10 03:49:37;;;;;;;6.00;5.43;;;7.20;99.90;;;;;;5084427;28;20197;-80
2021/04/10 03:52:03;;;;;;;8.73;5.90;;;7.20;99.90;;;;;;5084179;28;20194;-80
2021/04/10 03:54:28;;;;;;;8.03;5.43;;;7.20;99.90;;;;;;5084219;28;20595;-79
2021/04/10 03:56:54;;;;;;;5.77;5.27;;;7.20;99.90;;;;;;5083842;28;20170;-80
2021/04/10 03:59:19;;;;;;;7.77;5.17;;;7.20;99.90;;;;;;5088067;28;20158;-80
2021/04/10 04:01:45;;;;;;;5.87;5.27;;;7.20;99.90;;;;;;5079095;28;20178;-79
2021/04/10 04:04:10;;;;;;;6.20;5.60;;;7.20;99.90;;;;;;5076812;28;20174;-79
2021/04/10 04:06:36;;;;;;;9.47;6.17;;;7.20;99.90;;;;;;5078119;28;20178;-80
2021/04/10 04:09:01;;;;;;;7.33;5.73;;;7.20;99.90;;;;;;5073986;28;20170;-79
2021/04/10 04:11:27;;;;;;;5.20;4.70;;;7.30;99.90;;;;;;5074288;28;20190;-80
2021/04/10 04:13:52;;;;;;;10.37;5.40;;;7.20;99.90;;;;;;5073952;28;20198;-78
2021/04/10 04:16:18;;;;;;;5.77;4.87;;;7.20;99.90;;;;;;5073993;28;20224;-78
2021/04/10 04:18:43;;;;;;;8.40;4.00;;;7.20;99.90;;;;;;5072624;28;20162;-80
2021/04/10 04:21:09;;;;;;;9.40;5.27;;;7.20;99.90;;;;;;5073011;28;20231;-77
2021/04/10 04:23:34;;;;;;;5.47;4.60;;;7.20;99.90;;;;;;5072841;28;20166;-77
2021/04/10 04:26:00;;;;;;;6.00;5.20;;;7.20;99.90;;;;;;5073860;28;20171;-77
2021/04/10 04:28:25;;;;;;;6.33;5.20;;;7.10;99.90;;;;;;5073740;28;20712;-77
2021/04/10 04:30:51;;;;;;;5.90;5.20;;;7.10;99.90;;;;;;5072283;28;20217;-78
2021/04/10 04:33:16;;;;;;;8.23;6.57;;;7.10;99.90;;;;;;5074334;28;20209;-79
2021/04/10 04:35:41;;;;;;;6.77;5.03;;;7.10;99.90;;;;;;5074474;28;20170;-79
2021/04/10 04:38:07;;;;;;;7.57;5.07;;;7.10;99.90;;;;;;5074375;28;20174;-78
2021/04/10 04:40:32;;;;;;;6.60;5.20;;;7.10;99.90;;;;;;5073452;28;20173;-78
2021/04/10 04:42:58;;;;;;;6.17;5.50;;;7.10;99.90;;;;;;5073443;28;20268;-80
2021/04/10 04:45:24;;;;;;;5.37;4.87;;;7.10;99.90;;;;;;5073555;28;20246;-79
2021/04/10 04:47:50;;;;;;;6.30;4.70;;;7.10;99.90;;;;;;5073478;28;20163;-80
2021/04/10 04:50:15;;;;;;;10.90;5.20;;;7.10;99.90;;;;;;5074631;28;20484;-79
2021/04/10 04:52:41;;;;;;;5.53;4.97;;;7.00;99.90;;;;;;5081307;28;20188;-80
2021/04/10 04:55:07;;;;;;;10.00;4.77;;;7.00;99.90;;;;;;5076849;28;20202;-78
2021/04/10 04:57:32;;;;;;;4.67;4.20;;;6.90;99.90;;;;;;5075178;28;20537;-78
2021/04/10 04:59:58;;;;;;;7.70;5.97;;;6.90;99.90;;;;;;5075688;28;20460;-78
2021/04/10 05:02:24;;;;;;;7.27;5.87;;;6.90;99.90;;;;;;5077054;28;20198;-79
2021/04/10 05:04:49;;;;;;;5.80;4.93;;;6.90;99.90;;;;;;5106647;28;20174;-79
2021/04/10 05:07:15;;;;;;;9.53;5.17;;;6.90;99.90;;;;;;5087791;28;20516;-79
2021/04/10 05:09:40;;;;;;;8.00;5.30;;;6.90;99.90;;;;;;5076160;28;20183;-79
2021/04/10 05:12:06;;;;;;;7.83;5.53;;;6.90;99.90;;;;;;5083134;28;20194;-78
2021/04/10 05:14:32;;;;;;;5.43;4.93;;;6.90;99.90;;;;;;5090160;28;20558;-79
2021/04/10 05:16:57;;;;;;;5.40;4.90;;;6.90;99.90;;;;;;5087122;28;20412;-79
2021/04/10 05:19:23;;;;;;;5.93;4.33;;;6.90;99.90;;;;;;5074462;28;20248;-79
2021/04/10 05:21:48;;;;;;;6.20;3.90;;;6.80;99.90;;;;;;5066117;28;20636;-79
2021/04/10 05:24:14;;;;;;;6.00;4.73;;;6.80;99.90;;;;;;5069684;28;20178;-79
2021/04/10 05:26:39;;;;;;;6.90;5.03;;;6.80;99.90;;;;;;5084792;28;20177;-79
2021/04/10 05:29:05;;;;;;;10.07;5.13;;;6.70;99.90;;;;;;5065013;28;20179;-79
2021/04/10 05:31:30;;;;;;;7.90;5.73;;;6.70;99.90;;;;;;5080806;28;20221;-79
2021/04/10 05:33:56;;;;;;;6.47;4.70;;;6.80;99.90;;;;;;5092056;28;20202;-79
2021/04/10 05:36:22;;;;;;;8.63;5.60;;;6.70;99.90;;;;;;5074410;28;20188;-79
2021/04/10 05:38:47;;;;;;;5.27;3.77;;;6.70;99.90;;;;;;5085735;28;20404;-79
2021/04/10 05:41:13;;;;;;;5.10;4.57;;;6.70;99.90;;;;;;5085289;28;20174;-79
2021/04/10 05:43:38;;;;;;;4.90;3.70;;;6.60;99.90;;;;;;5086097;28;20195;-79
2021/04/10 05:46:04;;;;;;;6.00;5.40;;;6.60;99.90;;;;;;5084743;28;20178;-79
2021/04/10 05:48:29;;;;;;;6.50;5.50;;;6.60;99.90;;;;;;5084055;28;20257;-79
2021/04/10 05:50:55;;;;;;;8.07;5.53;;;6.60;99.90;;;;;;5083093;28;20257;-79
2021/04/10 05:53:21;;;;;;;9.50;5.17;;;6.60;99.90;;;;;;5077404;28;20198;-79
2021/04/10 05:55:46;;;;;;;6.37;4.90;;;6.60;99.90;;;;;;5079796;28;20166;-79
2021/04/10 05:58:11;;;;;;;6.50;4.37;;;6.60;99.90;;;;;;5081883;28;20167;-79
2021/04/10 06:00:37;;;;;;;5.57;4.03;;;6.50;99.90;;;;;;5082983;28;20181;-79
2021/04/10 06:03:03;;;;;;;8.17;4.10;;;6.50;99.90;;;;;;5078835;28;20190;-79
2021/04/10 06:05:28;;;;;;;6.37;5.37;;;6.50;99.90;;;;;;5081447;28;20192;-79
2021/04/10 06:07:54;;;;;;;5.77;4.80;;;6.50;99.90;;;;;;5087032;28;20280;-79
2021/04/10 06:10:20;;;;;;;9.53;5.30;;;6.50;99.90;;;;;;5095571;28;20185;-79
2021/04/10 06:12:47;;;;;;;7.37;5.63;;;6.40;99.90;;;;;;5091593;28;20184;-79
2021/04/10 06:15:16;;;;;;;7.63;4.70;;;6.50;99.90;;;;;;5091998;28;20450;-78
2021/04/10 06:17:42;;;;;;;9.43;5.30;;;6.50;99.90;;;;;;5083007;28;20812;-79
2021/04/10 06:20:08;;;;;;;7.73;5.80;;;6.50;99.90;;;;;;5079535;28;20420;-79
2021/04/10 06:22:34;;;;;;;5.40;4.53;;;6.50;99.90;;;;;;5080808;28;20194;-79
2021/04/10 06:25:00;;;;;;;7.90;5.20;;;6.50;99.90;;;;;;5079924;28;20415;-80
2021/04/10 06:27:25;;;;;;;5.47;4.60;;;6.50;99.90;;;;;;5080497;28;20754;-79
2021/04/10 06:29:51;;;;;;;7.50;5.40;;;6.50;99.90;;;;;;5079250;28;20174;-79
2021/04/10 06:32:17;;;;;;;6.47;5.00;;;6.60;99.90;;;;;;5079145;28;20201;-79
2021/04/10 06:34:42;;;;;;;7.47;5.20;;;6.60;99.90;;;;;;5080510;28;20218;-80
2021/04/10 06:37:08;;;;;;;6.80;5.17;;;6.60;99.90;;;;;;5097212;28;20167;-79
2021/04/10 06:39:33;;;;;;;7.40;5.67;;;6.60;99.90;;;;;;5077854;28;20170;-80
2021/04/10 06:42:00;;;;;;;11.33;5.10;;;6.60;99.90;;;;;;5076760;28;20201;-79
2021/04/10 06:44:26;;;;;;;11.37;8.00;;;6.60;99.90;;;;;;5077314;28;20174;-78
2021/04/10 06:46:54;;;;;;;8.90;6.30;;;6.60;99.90;;;;;;5078245;28;20493;-81
2021/04/10 06:49:20;;;;;;;9.80;8.10;;;6.60;99.90;;;;;;5076552;28;20454;-77
2021/04/10 06:51:46;;;;;;;8.37;7.23;;;6.60;99.90;;;;;;5075710;28;20920;-76
2021/04/10 06:54:16;;;;;;;9.97;7.23;;;6.50;99.90;;;;;;5081668;28;20455;-78
2021/04/10 06:56:56;;;;;;;11.20;8.10;;;6.60;99.90;;;;;;5084228;28;20480;-78
2021/04/10 06:59:32;;;;;;;13.80;9.00;;;6.50;99.90;;;;;;5084738;28;20757;-78
2021/04/10 07:01:57;;;;;;;11.20;10.07;;;6.40;99.90;;;;;;5084036;28;20446;-79
2021/04/10 07:04:24;;;;;;;14.50;11.27;;;6.40;99.90;;;;;;5083787;28;20405;-79
2021/04/10 07:06:50;;;;;;;13.87;10.20;;;6.30;99.90;;;;;;5082663;28;20177;-79
2021/04/10 07:09:16;;;;;;;11.50;10.07;;;6.30;99.90;;;;;;5083811;28;20416;-79
2021/04/10 07:11:42;;;;;;;11.10;8.93;;;6.30;99.90;;;;;;5090556;28;20432;-79
2021/04/10 07:14:07;;;;;;;14.60;10.57;;;6.30;99.90;;;;;;5085359;28;20487;-80
2021/04/10 07:16:40;;;;;;;12.73;9.60;;;6.20;99.90;;;;;;5082478;28;20176;-79
2021/04/10 07:19:10;;;;;;;13.30;10.30;;;6.20;99.90;;;;;;5089025;28;20196;-79
2021/04/10 07:21:36;;;;;;;9.50;8.53;;;6.20;99.90;;;;;;5081527;28;20421;-78
2021/04/10 07:24:02;;;;;;;10.00;8.33;;;6.20;99.90;;;;;;5079516;28;20919;-79
2021/04/10 07:26:52;;;;;;;10.73;8.33;;;6.20;99.90;;;;;;5082535;28;20525;-78
2021/04/10 07:29:33;;;;;;;9.10;7.07;;;6.20;99.90;;;;;;5082271;28;20189;-79
2021/04/10 07:31:59;;;;;;;10.83;8.43;;;6.20;99.90;;;;;;5081736;28;20796;-80
2021/04/10 07:34:26;;;;;;;12.13;6.63;;;6.30;99.90;;;;;;5082054;28;20455;-79
2021/04/10 07:37:00;;;;;;;8.87;6.53;;;6.30;99.90;;;;;;5078247;28;20420;-79
2021/04/10 07:39:27;;;;;;;9.00;6.53;;;6.30;99.90;;;;;;5074971;28;20412;-79
2021/04/10 07:42:00;;;;;;;12.50;6.23;;;6.30;99.90;;;;;;5084386;28;20502;-79
2021/04/10 07:44:36;;;;;;;7.80;6.20;;;6.30;99.90;;;;;;5089074;28;20409;-79
2021/04/10 07:47:06;;;;;;;10.43;6.30;;;6.30;99.90;;;;;;5085130;28;20427;-79
2021/04/10 07:49:32;;;;;;;13.13;6.70;;;6.40;99.90;;;;;;5071900;28;20410;-79
2021/04/10 07:52:02;;;;;;;8.37;6.60;;;6.30;99.90;;;;;;5075946;28;20442;-79
2021/04/10 07:54:36;;;;;;;11.57;8.73;;;6.30;99.90;;;;;;5090407;28;20448;-79
2021/04/10 07:57:05;;;;;;;9.47;6.83;;;6.40;99.90;;;;;;5094434;28;20408;-81
2021/04/10 07:59:33;;;;;;;8.60;7.07;;;6.50;99.90;;;;;;5093355;28;20404;-80
2021/04/10 08:02:12;;;;;;;10.77;9.03;;;6.50;99.90;;;;;;5109532;28;20424;-80
2021/04/10 08:04:40;;;;;;;10.90;8.13;;;6.60;99.90;;;;;;5085573;28;20459;-79
2021/04/10 08:07:07;;;;;;;10.00;9.00;;;6.60;99.90;;;;;;5097158;28;20500;-78
2021/04/10 08:09:35;;;;;;;12.63;8.63;;;6.60;99.90;;;;;;5094727;28;20420;-78
2021/04/10 08:12:02;;;;;;;11.30;8.93;;;6.60;99.90;;;;;;5106446;28;20462;-79
2021/04/10 08:14:43;;;;;;;11.27;9.40;;;6.70;99.90;;;;;;5095349;28;20460;-79
2021/04/10 08:17:09;;;;;;;9.80;6.80;;;6.70;99.90;;;;;;5070859;28;20815;-79
2021/04/10 08:19:35;;;;;;;12.60;6.70;;;6.70;99.90;;;;;;5076937;28;20451;-80
2021/04/10 08:22:02;;;;;;;14.70;8.97;;;6.80;99.90;;;;;;5073993;28;20520;-79
2021/04/10 08:24:39;;;;;;;7.80;6.60;;;6.80;99.90;;;;;;5061886;28;20422;-78
2021/04/10 08:27:08;;;;;;;8.87;6.40;;;7.00;99.90;;;;;;5055933;28;20417;-77
2021/04/10 08:29:34;;;;;;;9.73;6.83;;;7.00;99.90;;;;;;5058848;28;20416;-78
2021/04/10 08:32:01;;;;;;;8.87;6.77;;;7.10;99.90;;;;;;5074089;28;21129;-80
2021/04/10 08:34:27;;;;;;;7.90;6.87;;;7.10;99.90;;;;;;5082802;28;20463;-79
2021/04/10 08:36:58;;;;;;;7.73;6.30;;;7.20;99.90;;;;;;5094758;28;20460;-79
2021/04/10 08:39:29;;;;;;;8.87;5.97;;;7.20;99.90;;;;;;5094836;28;20476;-78
2021/04/10 08:41:56;;;;;;;11.13;6.77;;;7.30;99.90;;;;;;5086761;28;20439;-78
2021/04/10 08:44:25;;;;;;;13.13;7.73;;;7.40;99.90;;;;;;5103848;28;20411;-78
2021/04/10 08:46:51;;;;;;;7.87;6.30;;;7.50;99.90;;;;;;5089397;28;20405;-78
2021/04/10 08:49:19;;;;;;;8.20;6.20;;;7.60;99.90;;;;;;5086679;28;20407;-78
2021/04/10 08:51:48;;;;;;;12.97;6.43;;;7.70;99.90;;;;;;5079216;28;20864;-77
2021/04/10 08:54:14;;;;;;;8.33;6.00;;;7.80;99.90;;;;;;5075268;28;21058;-78
2021/04/10 08:56:40;;;;;;;13.87;7.50;;;8.30;99.90;;;;;;5074244;28;20408;-75
2021/04/10 08:59:14;;;;;;;13.50;7.37;;;8.20;99.90;;;;;;5074377;28;20409;-76
2021/04/10 09:01:42;;;;;;;11.63;7.43;;;8.20;99.90;;;;;;5071667;28;20419;-78
2021/04/10 09:04:09;;;;;;;7.83;4.87;;;8.20;99.90;;;;;;5061240;28;20968;-78
2021/04/10 09:06:38;;;;;;;13.10;7.03;;;8.50;99.90;;;;;;5073452;28;20400;-77
2021/04/10 09:09:12;;;;;;;13.57;5.07;;;8.70;99.90;;;;;;5063473;28;20410;-77
2021/04/10 09:11:49;;;;;;;5.83;5.17;;;8.80;99.90;;;;;;5054088;28;20430;-77
2021/04/10 09:14:42;;;;;;;4.87;4.37;;;8.80;99.90;;;;;;5060270;28;20876;-78
2021/04/10 09:17:07;;;;;;;5.57;5.00;;;8.80;99.90;;;;;;5077152;28;20476;-78
2021/04/10 09:19:37;;;;;;;4.23;3.83;;;9.00;99.90;;;;;;5078216;28;20458;-79
2021/04/10 09:22:03;;;;;;;7.33;4.13;;;9.00;99.90;;;;;;5089079;28;20571;-79
2021/04/10 09:24:50;;;;;;;9.90;3.90;;;9.00;99.90;;;;;;5092647;28;20403;-78
2021/04/10 09:27:23;;;;;;;6.77;4.23;;;9.20;99.90;;;;;;5095916;28;20395;-79
2021/04/10 09:29:59;;;;;;;6.60;3.93;;;9.20;99.90;;;;;;5096292;28;20411;-77
2021/04/10 09:32:33;;;;;;;11.00;4.90;;;9.30;99.90;;;;;;5085574;28;20432;-78
2021/04/10 09:35:01;;;;;;;4.50;3.47;;;9.40;99.90;;;;;;5081637;28;20479;-79
2021/04/10 09:37:50;;;;;;;8.70;3.43;;;9.30;99.90;;;;;;5081651;28;20489;-78
2021/04/10 09:40:43;;;;;;;4.83;3.10;;;9.60;99.90;;;;;;5079876;28;20451;-77
2021/04/10 09:43:15;;;;;;;6.37;3.70;;;9.30;99.90;;;;;;5074512;28;20421;-77
2021/04/10 09:45:46;;;;;;;4.93;3.20;;;9.00;99.90;;;;;;5074127;28;20934;-79
2021/04/10 09:48:18;;;;;;;4.70;2.80;;;9.20;99.90;;;;;;5088739;28;20411;-77
2021/04/10 09:50:58;;;;;;;3.90;2.77;;;9.20;99.90;;;;;;5073171;28;20442;-72
2021/04/10 09:53:30;;;;;;;5.20;2.70;;;9.50;99.90;;;;;;5064565;28;20470;-75
2021/04/10 09:56:06;;;;;;;4.63;2.90;;;9.80;99.90;;;;;;5052180;28;20742;-74
2021/04/10 09:58:41;;;;;;;5.63;3.23;;;9.90;99.90;;;;;;5079562;28;20414;-79
2021/04/10 10:01:11;;;;;;;4.13;3.13;;;9.90;99.90;;;;;;5072986;28;20392;-77
2021/04/10 10:03:40;;;;;;;6.33;3.47;;;10.20;99.90;;;;;;5073200;28;20405;-76
2021/04/10 10:06:17;;;;;;;3.20;2.77;;;10.30;99.90;;;;;;5072467;28;20450;-74
2021/04/10 10:08:44;;;;;;;4.10;2.93;;;10.10;99.90;;;;;;5073627;28;20431;-77
2021/04/10 10:11:13;;;;;;;5.30;3.30;;;10.00;99.90;;;;;;5077097;28;20412;-79
2021/04/10 10:13:41;;;;;;;6.27;3.63;;;10.10;99.90;;;;;;5071446;28;20539;-79
2021/04/10 10:16:16;;;;;;;5.87;3.20;;;10.30;99.90;;;;;;5071565;28;20435;-78
2021/04/10 10:18:43;;;;;;;4.27;3.70;;;10.50;99.90;;;;;;5076998;28;20408;-77
2021/04/10 10:21:11;;;;;;;4.40;3.33;;;10.90;99.90;;;;;;5076439;28;20404;-77
2021/04/10 10:23:42;;;;;;;5.40;3.20;;;10.90;99.90;;;;;;5076590;28;20462;-77
2021/04/10 10:26:25;;;;;;;3.63;3.03;;;10.70;99.90;;;;;;5076698;28;20477;-78
2021/04/10 10:29:17;;;;;;;4.20;3.03;;;10.50;99.90;;;;;;5078511;28;20425;-77
2021/04/10 10:31:55;;;;;;;4.10;3.80;;;10.90;99.90;;;;;;5078247;28;20443;-80
2021/04/10 10:34:31;;;;;;;6.20;3.60;;;10.90;99.90;;;;;;5082488;28;20447;-77
2021/04/10 10:36:59;;;;;;;10.50;3.20;;;10.80;99.90;;;;;;5077130;28;20777;-78
2021/04/10 10:39:32;;;;;;;4.87;2.97;;;10.50;99.90;;;;;;5084583;28;20787;-76
2021/04/10 10:42:14;;;;;;;4.60;4.03;;;10.40;99.90;;;;;;5096731;28;20959;-76
2021/04/10 10:45:02;;;;;;;3.77;2.90;;;10.20;99.90;;;;;;5097733;28;20980;-77
2021/04/10 10:47:41;;;;;;;7.37;4.07;;;10.10;99.90;;;;;;5086903;28;20437;-77
2021/04/10 10:50:17;;;;;;;4.67;3.37;;;10.20;99.90;;;;;;5086956;28;20411;-77
2021/04/10 10:52:43;;;;;;;4.10;3.70;;;10.30;99.90;;;;;;5091034;28;20435;-79
2021/04/10 10:55:09;;;;;;;4.13;3.37;;;9.80;99.90;;;;;;5076444;28;20531;-79
2021/04/10 10:57:39;;;;;;;4.10;3.70;;;10.00;99.90;;;;;;5074063;28;20173;-78
2021/04/10 11:00:11;;;;;;;4.83;3.40;;;10.50;99.90;;;;;;5076218;28;20396;-78
2021/04/10 11:02:48;;;;;;;5.60;3.60;;;10.50;99.90;;;;;;5075439;28;20426;-78
2021/04/10 11:05:15;;;;;;;6.40;3.00;;;10.50;99.90;;;;;;5074444;28;21077;-78
2021/04/10 11:07:42;;;;;;;4.63;3.30;;;10.90;99.90;;;;;;5087421;28;20433;-77
2021/04/10 11:10:14;;;;;;;7.43;2.83;;;10.50;99.90;;;;;;5084357;28;20828;-77
2021/04/10 11:12:43;;;;;;;4.13;3.53;;;10.10;99.90;;;;;;5073889;28;20501;-78
2021/04/10 11:15:11;;;;;;;3.70;3.40;;;10.20;99.90;;;;;;5075985;28;21046;-79
2021/04/10 11:17:47;;;;;;;9.10;5.37;;;10.00;99.90;;;;;;5076287;28;20401;-78
2021/04/10 11:20:34;;;;;;;5.43;4.10;;;9.80;99.90;;;;;;5076575;28;20403;-78
2021/04/10 11:23:03;;;;;;;5.97;4.20;;;9.90;99.90;;;;;;5076730;28;20432;-78
2021/04/10 11:25:53;;;;;;;4.80;4.00;;;9.90;99.90;;;;;;5077283;28;20823;-79
2021/04/10 11:28:29;;;;;;;3.90;3.53;;;10.10;99.90;;;;;;5076459;28;20416;-77
2021/04/10 11:31:18;;;;;;;7.80;4.90;;;10.20;99.90;;;;;;5078010;28;20820;-77
2021/04/10 11:33:44;;;;;;;5.00;3.53;;;10.10;99.90;;;;;;5077513;28;20806;-76
2021/04/10 11:36:15;;;;;;;4.77;4.23;;;10.10;99.90;;;;;;5076821;28;20412;-77
2021/04/10 11:39:05;;;;;;;8.27;4.13;;;10.10;99.90;;;;;;5077623;28;20155;-77
2021/04/10 11:41:54;;;;;;;5.60;3.70;;;10.00;99.90;;;;;;5077518;28;20793;-78
2021/04/10 11:44:39;;;;;;;5.97;3.90;;;9.90;99.90;;;;;;5076100;28;20768;-77
2021/04/10 11:47:08;;;;;;;4.97;3.07;;;9.70;99.90;;;;;;5075409;28;20919;-77
2021/04/10 11:49:36;;;;;;;4.40;3.70;;;10.00;99.90;;;;;;5075897;28;20540;-77
2021/04/10 11:52:17;;;;;;;3.40;3.07;;;9.90;99.90;;;;;;5075374;28;20503;-78
2021/04/10 11:55:01;;;;;;;4.23;3.40;;;9.90;99.90;;;;;;5071417;28;20444;-78
2021/04/10 11:57:37;;;;;;;4.80;3.50;;;10.10;99.90;;;;;;5080685;28;20405;-77
2021/04/10 12:00:19;;;;;;;4.20;3.80;;;10.00;99.90;;;;;;5074021;28;20900;-78
2021/04/10 12:02:53;;;;;;;6.17;3.53;;;10.00;99.90;;;;;;5070173;28;20939;-78
2021/04/10 12:05:43;;;;;;;4.83;3.20;;;10.00;99.90;;;;;;5073316;28;20482;-78
2021/04/10 12:08:26;;;;;;;3.73;3.13;;;10.00;99.90;;;;;;5075292;28;20409;-78
2021/04/10 12:11:09;;;;;;;;;;;;;;;;;;;;;
2021/04/10 12:13:40;;;;;;;5.33;3.50;;;10.20;99.90;;;;;;5086897;28;20431;-78
2021/04/10 12:16:14;;;;;;;5.53;4.27;;;10.40;99.90;;;;;;5088406;28;20427;-78
2021/04/10 12:18:42;;;;;;;5.60;3.43;;;10.70;99.90;;;;;;5096287;28;20895;-78
2021/04/10 12:21:10;;;;;;;4.10;3.10;;;10.80;99.90;;;;;;5087964;28;20901;-78
2021/04/10 12:23:42;;;;;;;5.23;3.33;;;11.00;99.90;;;;;;5074598;28;20401;-77
2021/04/10 12:26:08;;;;;;;4.70;3.23;;;10.70;99.90;;;;;;5074573;28;20500;-78
2021/04/10 12:28:38;;;;;;;8.47;4.37;;;10.80;99.90;;;;;;5055085;28;20798;-77
2021/04/10 12:31:10;;;;;;;4.87;3.93;;;10.70;99.90;;;;;;5052931;28;20445;-78
2021/04/10 12:33:44;;;;;;;6.53;3.70;;;10.60;99.90;;;;;;5063046;28;20459;-78
2021/04/10 12:36:13;;;;;;;7.07;4.77;;;10.50;99.90;;;;;;5073898;28;20404;-78
2021/04/10 12:38:47;;;;;;;6.00;4.13;;;10.40;99.90;;;;;;5073972;28;20436;-76
2021/04/10 12:41:20;;;;;;;6.73;3.00;;;10.30;99.90;;;;;;5073009;28;20469;-76
2021/04/10 12:43:49;;;;;;;7.20;3.80;;;10.30;99.90;;;;;;5075726;28;20768;-76
2021/04/10 12:46:19;;;;;;;5.43;3.70;;;10.10;99.90;;;;;;5074327;28;20969;-76
2021/04/10 12:48:54;;;;;;;7.33;3.47;;;10.10;99.90;;;;;;5073983;28;20435;-77
2021/04/10 12:51:23;;;;;;;4.57;4.17;;;10.30;99.90;;;;;;5078627;28;20419;-77
2021/04/10 12:53:54;;;;;;;6.20;3.30;;;10.20;99.90;;;;;;5072936;28;20535;-76
2021/04/10 12:56:22;;;;;;;3.50;2.73;;;10.10;99.90;;;;;;5071450;28;20417;-76
2021/04/10 12:58:56;;;;;;;8.30;3.77;;;10.20;99.90;;;;;;5085129;28;20423;-76
2021/04/10 13:01:25;;;;;;;4.13;3.40;;;10.10;99.90;;;;;;5085101;28;20412;-77
2021/04/10 13:03:55;;;;;;;8.27;3.70;;;10.20;99.90;;;;;;5082644;28;20421;-75
2021/04/10 13:06:21;;;;;;;6.60;3.43;;;10.20;99.90;;;;;;5081696;28;20966;-74